createdAt,value
2018-04-08T00:00:25.331Z,14.8
2018-04-08T00:01:26.945Z,14.6
2018-04-08T00:02:28.555Z,14.6
2018-04-08T00:03:30.172Z,14.6
2018-04-08T00:04:31.785Z,14.6
2018-04-08T00:05:33.615Z,14.6
2018-04-08T00:06:35.304Z,14.5
2018-04-08T00:07:36.920Z,14.6
2018-04-08T00:08:38.534Z,14.6
2018-04-08T00:09:40.643Z,14.5
2018-04-08T00:10:42.291Z,14.4
2018-04-08T00:11:44.054Z,14.4
2018-04-08T00:12:46.030Z,14.5
2018-04-08T00:13:47.651Z,14.5
2018-04-08T00:14:49.449Z,14.5
2018-04-08T00:15:51.060Z,14.5
2018-04-08T00:16:52.898Z,14.5
2018-04-08T00:17:54.690Z,14.5
2018-04-08T00:18:56.848Z,14.5
2018-04-08T00:19:58.497Z,14.6
2018-04-08T00:21:00.115Z,14.4
2018-04-08T00:22:01.855Z,14.4
2018-04-08T00:23:03.856Z,14.5
2018-04-08T00:24:05.545Z,14.4
2018-04-08T00:25:07.180Z,14.4
2018-04-08T00:26:08.908Z,14.5
2018-04-08T00:27:10.519Z,14.4
2018-04-08T00:28:12.135Z,14.4
2018-04-08T00:29:13.748Z,14.3
2018-04-08T00:30:15.355Z,14.4
2018-04-08T00:31:16.975Z,14.3
2018-04-08T00:32:18.584Z,14.3
2018-04-08T00:33:20.202Z,14.3
2018-04-08T00:34:21.814Z,14.2
2018-04-08T00:35:23.425Z,14.2
2018-04-08T00:36:25.037Z,14.2
2018-04-08T00:37:26.656Z,14.4
2018-04-08T00:38:28.274Z,14.3
2018-04-08T00:39:29.885Z,14.2
2018-04-08T00:40:31.494Z,14.4
2018-04-08T00:41:33.111Z,14.4
2018-04-08T00:42:34.718Z,14.4
2018-04-08T00:43:36.335Z,14.3
2018-04-08T00:44:37.943Z,14.5
2018-04-08T00:45:39.556Z,14.3
2018-04-08T00:46:41.179Z,14.4
2018-04-08T00:47:42.789Z,14.4
2018-04-08T00:48:44.453Z,14.4
2018-04-08T00:49:46.017Z,14.3
2018-04-08T00:50:47.627Z,14.3
2018-04-08T00:51:49.242Z,14.3
2018-04-08T00:52:50.858Z,14.4
2018-04-08T00:53:52.469Z,14.4
2018-04-08T00:54:54.077Z,14.3
2018-04-08T00:55:55.694Z,14.2
2018-04-08T00:56:57.305Z,14.3
2018-04-08T00:57:58.918Z,14.2
2018-04-08T00:59:00.528Z,14.2
2018-04-08T01:00:02.143Z,14.2
2018-04-08T01:01:03.756Z,14.1
2018-04-08T01:02:05.372Z,14.0
2018-04-08T01:03:06.980Z,14.2
2018-04-08T01:04:08.599Z,14.1
2018-04-08T01:05:10.208Z,14.2
2018-04-08T01:06:11.820Z,14.1
2018-04-08T01:07:13.440Z,14.2
2018-04-08T01:08:15.050Z,14.0
2018-04-08T01:09:16.663Z,14.3
2018-04-08T01:10:18.272Z,14.0
2018-04-08T01:11:19.890Z,14.0
2018-04-08T01:12:21.499Z,14.1
2018-04-08T01:13:23.115Z,14.0
2018-04-08T01:14:24.727Z,14.0
2018-04-08T01:15:26.341Z,14.0
2018-04-08T01:16:27.948Z,14.0
2018-04-08T01:17:29.561Z,13.9
2018-04-08T01:18:31.177Z,14.0
2018-04-08T01:19:32.789Z,13.9
2018-04-08T01:20:34.406Z,13.9
2018-04-08T01:21:36.017Z,13.8
2018-04-08T01:22:37.628Z,13.9
2018-04-08T01:23:39.242Z,13.8
2018-04-08T01:24:40.850Z,13.8
2018-04-08T01:25:42.467Z,13.7
2018-04-08T01:26:44.074Z,13.8
2018-04-08T01:27:45.689Z,13.8
2018-04-08T01:28:47.300Z,13.8
2018-04-08T01:29:48.916Z,13.7
2018-04-08T01:30:50.523Z,13.7
2018-04-08T01:31:52.141Z,13.7
2018-04-08T01:32:53.758Z,13.7
2018-04-08T01:33:55.364Z,13.7
2018-04-08T01:34:56.977Z,13.7
2018-04-08T01:35:58.591Z,13.7
2018-04-08T01:37:00.206Z,13.7
2018-04-08T01:38:01.818Z,13.6
2018-04-08T01:39:03.430Z,13.6
2018-04-08T01:40:05.043Z,13.5
2018-04-08T01:41:06.659Z,13.6
2018-04-08T01:42:08.262Z,13.5
2018-04-08T01:43:09.886Z,13.4
2018-04-08T01:44:11.496Z,13.5
2018-04-08T01:45:13.105Z,13.5
2018-04-08T01:46:14.713Z,13.5
2018-04-08T01:47:16.328Z,13.5
2018-04-08T01:48:17.940Z,13.5
2018-04-08T01:49:19.548Z,13.5
2018-04-08T01:50:21.160Z,13.5
2018-04-08T01:51:22.774Z,13.5
2018-04-08T01:52:24.387Z,13.4
2018-04-08T01:53:26.002Z,13.4
2018-04-08T01:54:27.617Z,13.3
2018-04-08T01:55:29.248Z,13.2
2018-04-08T01:56:30.857Z,13.3
2018-04-08T01:57:32.477Z,13.3
2018-04-08T01:58:34.087Z,13.3
2018-04-08T01:59:35.704Z,13.4
2018-04-08T02:00:37.312Z,13.4
2018-04-08T02:01:38.926Z,13.4
2018-04-08T02:02:40.536Z,13.4
2018-04-08T02:03:42.151Z,13.4
2018-04-08T02:04:43.763Z,13.3
2018-04-08T02:05:45.374Z,13.4
2018-04-08T02:06:46.983Z,13.4
2018-04-08T02:07:48.601Z,13.3
2018-04-08T02:08:50.213Z,13.4
2018-04-08T02:09:51.826Z,13.3
2018-04-08T02:10:53.437Z,13.3
2018-04-08T02:11:55.048Z,13.3
2018-04-08T02:12:56.664Z,13.2
2018-04-08T02:13:58.272Z,13.1
2018-04-08T02:14:59.889Z,13.1
2018-04-08T02:16:01.500Z,13.2
2018-04-08T02:17:03.111Z,13.1
2018-04-08T02:18:04.721Z,13.1
2018-04-08T02:19:06.349Z,13.1
2018-04-08T02:20:07.948Z,13.2
2018-04-08T02:21:09.565Z,13.1
2018-04-08T02:22:11.177Z,13.1
2018-04-08T02:23:12.787Z,13.0
2018-04-08T02:24:14.402Z,13.1
2018-04-08T02:25:16.017Z,13.1
2018-04-08T02:26:17.625Z,13.1
2018-04-08T02:27:19.235Z,13.0
2018-04-08T02:28:20.845Z,13.1
2018-04-08T02:29:22.455Z,13.0
2018-04-08T02:30:24.070Z,13.1
2018-04-08T02:31:25.686Z,13.1
2018-04-08T02:32:27.298Z,13.1
2018-04-08T02:33:28.907Z,13.0
2018-04-08T02:34:30.521Z,13.1
2018-04-08T02:35:32.133Z,13.1
2018-04-08T02:36:33.742Z,13.2
2018-04-08T02:37:35.349Z,13.1
2018-04-08T02:38:36.963Z,13.2
2018-04-08T02:39:38.575Z,13.2
2018-04-08T02:40:40.186Z,13.2
2018-04-08T02:41:41.798Z,13.2
2018-04-08T02:42:43.407Z,13.3
2018-04-08T02:43:45.017Z,13.3
2018-04-08T02:44:46.633Z,13.3
2018-04-08T02:45:48.239Z,13.4
2018-04-08T02:46:49.856Z,13.4
2018-04-08T02:47:51.466Z,13.3
2018-04-08T02:48:53.087Z,13.4
2018-04-08T02:49:54.694Z,13.4
2018-04-08T02:50:56.308Z,13.4
2018-04-08T02:51:57.919Z,13.5
2018-04-08T02:52:59.533Z,13.4
2018-04-08T02:54:01.148Z,13.4
2018-04-08T02:55:02.770Z,13.4
2018-04-08T02:56:04.367Z,13.6
2018-04-08T02:57:05.984Z,13.5
2018-04-08T02:58:07.595Z,13.5
2018-04-08T02:59:09.205Z,13.5
2018-04-08T03:00:10.816Z,13.5
2018-04-08T03:01:12.432Z,13.5
2018-04-08T03:02:14.048Z,13.6
2018-04-08T03:03:15.673Z,13.7
2018-04-08T03:04:17.273Z,13.7
2018-04-08T03:05:18.889Z,13.6
2018-04-08T03:06:20.503Z,13.6
2018-04-08T03:07:22.112Z,13.7
2018-04-08T03:08:23.722Z,13.8
2018-04-08T03:09:25.374Z,13.8
2018-04-08T03:10:26.952Z,13.9
2018-04-08T03:11:28.558Z,14.0
2018-04-08T03:12:30.168Z,14.0
2018-04-08T03:13:31.784Z,14.0
2018-04-08T03:14:33.390Z,14.0
2018-04-08T03:15:35.006Z,14.0
2018-04-08T03:16:36.622Z,14.0
2018-04-08T03:17:38.238Z,14.2
2018-04-08T03:18:39.853Z,14.0
2018-04-08T03:19:41.463Z,14.1
2018-04-08T03:20:43.078Z,14.0
2018-04-08T03:21:44.689Z,14.1
2018-04-08T03:22:46.303Z,14.0
2018-04-08T03:23:47.913Z,14.1
2018-04-08T03:24:49.524Z,14.0
2018-04-08T03:25:51.138Z,14.1
2018-04-08T03:26:52.745Z,14.1
2018-04-08T03:27:54.361Z,14.0
2018-04-08T03:28:55.970Z,14.1
2018-04-08T03:29:57.586Z,14.0
2018-04-08T03:30:59.205Z,14.1
2018-04-08T03:32:00.815Z,14.0
2018-04-08T03:33:02.429Z,14.0
2018-04-08T03:34:04.043Z,14.1
2018-04-08T03:35:05.652Z,14.1
2018-04-08T03:36:07.268Z,14.2
2018-04-08T03:37:08.878Z,14.2
2018-04-08T03:38:10.493Z,14.3
2018-04-08T03:39:12.102Z,14.2
2018-04-08T03:40:13.721Z,14.2
2018-04-08T03:41:15.325Z,14.1
2018-04-08T03:42:16.940Z,14.2
2018-04-08T03:43:18.560Z,14.1
2018-04-08T03:44:20.166Z,14.2
2018-04-08T03:45:21.786Z,14.2
2018-04-08T03:46:23.398Z,14.1
2018-04-08T03:47:25.015Z,14.1
2018-04-08T03:48:26.622Z,14.1
2018-04-08T03:49:28.238Z,14.1
2018-04-08T03:50:29.847Z,14.1
2018-04-08T03:51:31.458Z,14.1
2018-04-08T03:52:33.074Z,14.1
2018-04-08T03:53:34.686Z,14.2
2018-04-08T03:54:36.299Z,14.1
2018-04-08T03:55:37.908Z,14.1
2018-04-08T03:56:39.523Z,14.2
2018-04-08T03:57:41.131Z,14.2
2018-04-08T03:58:42.748Z,14.2
2018-04-08T03:59:44.359Z,14.1
2018-04-08T04:00:45.980Z,14.3
2018-04-08T04:01:47.585Z,14.3
2018-04-08T04:02:49.204Z,14.3
2018-04-08T04:03:50.813Z,14.3
2018-04-08T04:04:52.428Z,14.4
2018-04-08T04:05:54.038Z,14.4
2018-04-08T04:06:55.654Z,14.5
2018-04-08T04:07:57.271Z,14.4
2018-04-08T04:08:58.876Z,14.5
2018-04-08T04:10:00.487Z,14.5
2018-04-08T04:11:02.101Z,14.5
2018-04-08T04:12:03.713Z,14.5
2018-04-08T04:13:05.325Z,14.6
2018-04-08T04:14:06.935Z,14.5
2018-04-08T04:15:08.552Z,14.6
2018-04-08T04:16:10.160Z,14.7
2018-04-08T04:17:11.775Z,14.7
2018-04-08T04:18:13.390Z,14.8
2018-04-08T04:19:15.000Z,14.8
2018-04-08T04:20:16.618Z,14.7
2018-04-08T04:21:18.228Z,14.8
2018-04-08T04:22:19.840Z,14.9
2018-04-08T04:23:21.449Z,14.8
2018-04-08T04:24:23.066Z,14.8
2018-04-08T04:25:24.678Z,14.9
2018-04-08T04:26:26.292Z,14.8
2018-04-08T04:27:27.905Z,14.8
2018-04-08T04:28:29.521Z,14.7
2018-04-08T04:29:31.130Z,14.8
2018-04-08T04:30:32.740Z,14.9
2018-04-08T04:31:34.355Z,14.9
2018-04-08T04:32:35.963Z,14.9
2018-04-08T04:33:37.579Z,14.9
2018-04-08T04:34:39.195Z,15.0
2018-04-08T04:35:40.808Z,15.1
2018-04-08T04:36:42.427Z,15.0
2018-04-08T04:37:44.089Z,15.0
2018-04-08T04:38:45.649Z,15.0
2018-04-08T04:39:47.259Z,14.9
2018-04-08T04:40:48.870Z,15.0
2018-04-08T04:41:50.488Z,15.1
2018-04-08T04:42:52.097Z,15.0
2018-04-08T04:43:53.715Z,15.2
2018-04-08T04:44:55.323Z,15.0
2018-04-08T04:45:56.939Z,15.1
2018-04-08T04:46:58.549Z,15.1
2018-04-08T04:48:00.167Z,15.0
2018-04-08T04:49:01.777Z,15.0
2018-04-08T04:50:03.394Z,15.1
2018-04-08T04:51:05.012Z,14.9
2018-04-08T04:52:06.622Z,15.0
2018-04-08T04:53:08.237Z,14.9
2018-04-08T04:54:09.857Z,15.0
2018-04-08T04:55:11.472Z,14.9
2018-04-08T04:56:13.091Z,15.0
2018-04-08T04:57:14.707Z,15.0
2018-04-08T04:58:16.321Z,14.9
2018-04-08T04:59:17.941Z,14.9
2018-04-08T05:00:19.554Z,14.9
2018-04-08T05:01:21.177Z,14.9
2018-04-08T05:02:22.789Z,15.1
2018-04-08T05:03:24.408Z,15.1
2018-04-08T05:04:26.025Z,15.1
2018-04-08T05:05:27.639Z,15.1
2018-04-08T05:06:29.258Z,15.1
2018-04-08T05:07:30.870Z,14.9
2018-04-08T05:08:32.485Z,15.0
2018-04-08T05:09:34.108Z,15.0
2018-04-08T05:10:35.727Z,15.0
2018-04-08T05:11:37.344Z,15.2
2018-04-08T05:12:38.961Z,15.1
2018-04-08T05:13:40.574Z,15.1
2018-04-08T05:14:42.194Z,15.0
2018-04-08T05:15:43.811Z,15.1
2018-04-08T05:16:45.420Z,15.0
2018-04-08T05:17:47.041Z,15.1
2018-04-08T05:18:48.661Z,15.2
2018-04-08T05:19:50.278Z,15.2
2018-04-08T05:20:51.890Z,15.2
2018-04-08T05:21:53.510Z,15.1
2018-04-08T05:22:55.128Z,15.2
2018-04-08T05:23:56.743Z,15.2
2018-04-08T05:24:58.361Z,15.1
2018-04-08T05:25:59.977Z,15.1
2018-04-08T05:27:01.600Z,15.1
2018-04-08T05:28:03.213Z,15.3
2018-04-08T05:29:04.831Z,15.2
2018-04-08T05:30:06.454Z,15.3
2018-04-08T05:31:08.069Z,15.3
2018-04-08T05:32:09.693Z,15.3
2018-04-08T05:33:11.308Z,15.3
2018-04-08T05:34:12.932Z,15.3
2018-04-08T05:35:14.545Z,15.3
2018-04-08T05:36:16.167Z,15.3
2018-04-08T05:37:17.785Z,15.4
2018-04-08T05:38:19.397Z,15.4
2018-04-08T05:39:21.020Z,15.3
2018-04-08T05:40:22.640Z,15.3
2018-04-08T05:41:24.260Z,15.5
2018-04-08T05:42:25.883Z,15.4
2018-04-08T05:43:27.496Z,15.4
2018-04-08T05:44:29.119Z,15.4
2018-04-08T05:45:30.739Z,15.3
2018-04-08T05:46:32.357Z,15.4
2018-04-08T05:47:33.980Z,15.4
2018-04-08T05:48:35.599Z,15.4
2018-04-08T05:49:37.221Z,15.5
2018-04-08T05:50:38.833Z,15.5
2018-04-08T05:51:40.457Z,15.6
2018-04-08T05:52:42.070Z,15.6
2018-04-08T05:53:43.693Z,15.7
2018-04-08T05:54:45.317Z,15.6
2018-04-08T05:55:46.940Z,15.6
2018-04-08T05:56:48.563Z,15.5
2018-04-08T05:57:50.181Z,15.8
2018-04-08T05:58:51.799Z,15.5
2018-04-08T05:59:53.417Z,15.7
2018-04-08T06:00:55.034Z,15.7
2018-04-08T06:01:56.666Z,15.7
2018-04-08T06:02:58.281Z,15.8
2018-04-08T06:03:59.896Z,15.7
2018-04-08T06:05:01.516Z,15.8
2018-04-08T06:06:03.134Z,15.9
2018-04-08T06:07:04.757Z,15.8
2018-04-08T06:08:06.373Z,15.8
2018-04-08T06:09:07.999Z,15.9
2018-04-08T06:10:09.617Z,15.8
2018-04-08T06:11:11.236Z,15.8
2018-04-08T06:12:12.858Z,15.9
2018-04-08T06:13:14.479Z,16.0
2018-04-08T06:14:16.100Z,15.8
2018-04-08T06:15:17.723Z,16.0
2018-04-08T06:16:19.343Z,16.0
2018-04-08T06:17:20.963Z,16.1
2018-04-08T06:18:22.588Z,16.0
2018-04-08T06:19:24.199Z,16.0
2018-04-08T06:20:25.822Z,16.2
2018-04-08T06:21:27.441Z,16.1
2018-04-08T06:22:29.060Z,16.1
2018-04-08T06:23:30.682Z,16.2
2018-04-08T06:24:32.304Z,16.3
2018-04-08T06:25:33.924Z,16.2
2018-04-08T06:26:35.542Z,16.2
2018-04-08T06:27:37.164Z,16.3
2018-04-08T06:28:38.786Z,16.3
2018-04-08T06:29:40.406Z,16.4
2018-04-08T06:30:42.024Z,16.5
2018-04-08T06:31:43.649Z,16.5
2018-04-08T06:32:45.262Z,16.6
2018-04-08T06:33:46.886Z,16.7
2018-04-08T06:34:48.508Z,16.7
2018-04-08T06:35:50.131Z,16.8
2018-04-08T06:36:51.748Z,16.9
2018-04-08T06:37:53.372Z,16.9
2018-04-08T06:38:54.991Z,16.9
2018-04-08T06:39:56.615Z,17.0
2018-04-08T06:40:58.234Z,17.1
2018-04-08T06:41:59.859Z,17.2
2018-04-08T06:43:01.472Z,17.4
2018-04-08T06:44:03.089Z,17.5
2018-04-08T06:45:04.713Z,17.6
2018-04-08T06:46:06.336Z,17.7
2018-04-08T06:47:07.978Z,18.0
2018-04-08T06:48:09.576Z,18.3
2018-04-08T06:49:11.199Z,18.9
2018-04-08T06:50:12.822Z,19.4
2018-04-08T06:51:14.447Z,20.1
2018-04-08T06:52:16.071Z,20.8
2018-04-08T06:53:17.695Z,21.4
2018-04-08T06:54:19.312Z,21.8
2018-04-08T06:55:20.936Z,22.5
2018-04-08T06:56:22.554Z,22.6
2018-04-08T06:57:24.185Z,22.5
2018-04-08T06:58:25.879Z,22.2
2018-04-08T06:59:27.432Z,22.1
2018-04-08T07:00:29.059Z,21.9
2018-04-08T07:01:30.679Z,21.9
2018-04-08T07:02:32.299Z,21.8
2018-04-08T07:03:33.928Z,21.8
2018-04-08T07:04:35.552Z,22.1
2018-04-08T07:05:37.171Z,22.1
2018-04-08T07:06:38.798Z,22.1
2018-04-08T07:07:40.424Z,21.8
2018-04-08T07:08:42.045Z,21.6
2018-04-08T07:09:43.671Z,21.5
2018-04-08T07:10:45.296Z,21.3
2018-04-08T07:11:47.003Z,21.3
2018-04-08T07:12:48.626Z,21.2
2018-04-08T07:13:50.251Z,21.4
2018-04-08T07:14:51.880Z,21.4
2018-04-08T07:15:53.506Z,21.3
2018-04-08T07:16:55.125Z,21.5
2018-04-08T07:17:56.753Z,21.9
2018-04-08T07:18:58.375Z,22.1
2018-04-08T07:20:00.002Z,22.1
2018-04-08T07:21:01.624Z,22.2
2018-04-08T07:22:03.251Z,22.3
2018-04-08T07:23:04.871Z,22.4
2018-04-08T07:24:06.501Z,22.5
2018-04-08T07:25:08.260Z,22.8
2018-04-08T07:26:09.863Z,22.9
2018-04-08T07:27:11.487Z,23.3
2018-04-08T07:28:13.110Z,23.5
2018-04-08T07:29:14.742Z,23.5
2018-04-08T07:30:16.374Z,23.5
2018-04-08T07:31:17.993Z,23.6
2018-04-08T07:32:19.614Z,23.5
2018-04-08T07:33:21.235Z,23.5
2018-04-08T07:34:22.866Z,23.4
2018-04-08T07:35:24.489Z,23.0
2018-04-08T07:36:26.121Z,23.0
2018-04-08T07:37:27.743Z,23.3
2018-04-08T07:38:29.369Z,23.2
2018-04-08T07:39:30.996Z,23.2
2018-04-08T07:40:32.620Z,23.0
2018-04-08T07:41:34.245Z,22.9
2018-04-08T07:42:35.868Z,22.8
2018-04-08T07:43:37.499Z,22.9
2018-04-08T07:44:40.292Z,22.8
2018-04-08T07:45:41.921Z,22.7
2018-04-08T07:46:43.542Z,22.4
2018-04-08T07:47:45.170Z,22.2
2018-04-08T07:48:46.793Z,22.3
2018-04-08T07:49:48.424Z,22.3
2018-04-08T07:50:50.045Z,22.3
2018-04-08T07:51:51.667Z,22.2
2018-04-08T07:52:53.291Z,22.1
2018-04-08T07:53:54.916Z,22.0
2018-04-08T07:54:56.539Z,22.0
2018-04-08T07:55:58.160Z,22.1
2018-04-08T07:56:59.788Z,22.0
2018-04-08T07:58:01.411Z,21.9
2018-04-08T07:59:03.035Z,22.0
2018-04-08T08:00:04.672Z,22.0
2018-04-08T08:01:06.317Z,21.9
2018-04-08T08:02:07.947Z,22.0
2018-04-08T08:03:09.577Z,22.0
2018-04-08T08:04:11.198Z,21.9
2018-04-08T08:05:12.826Z,22.0
2018-04-08T08:06:14.447Z,22.0
2018-04-08T08:07:16.068Z,22.0
2018-04-08T08:08:17.691Z,22.1
2018-04-08T08:09:19.318Z,22.1
2018-04-08T08:10:20.945Z,22.1
2018-04-08T08:11:22.566Z,22.0
2018-04-08T08:12:24.188Z,22.2
2018-04-08T08:13:25.810Z,22.1
2018-04-08T08:14:27.439Z,22.0
2018-04-08T08:15:29.057Z,22.1
2018-04-08T08:16:30.680Z,22.2
2018-04-08T08:17:32.306Z,22.0
2018-04-08T08:18:33.929Z,22.1
2018-04-08T08:19:35.551Z,22.1
2018-04-08T08:20:37.174Z,22.0
2018-04-08T08:21:38.803Z,22.1
2018-04-08T08:22:40.466Z,22.0
2018-04-08T08:23:42.084Z,22.1
2018-04-08T08:24:43.674Z,22.1
2018-04-08T08:25:45.304Z,22.1
2018-04-08T08:26:46.923Z,22.1
2018-04-08T08:27:48.549Z,22.1
2018-04-08T08:28:50.168Z,22.2
2018-04-08T08:29:51.796Z,22.2
2018-04-08T08:30:53.413Z,22.2
2018-04-08T08:31:55.058Z,22.1
2018-04-08T08:32:56.667Z,22.1
2018-04-08T08:33:58.292Z,22.3
2018-04-08T08:34:59.916Z,22.2
2018-04-08T08:36:01.546Z,22.2
2018-04-08T08:37:03.160Z,22.2
2018-04-08T08:38:04.786Z,22.2
2018-04-08T08:39:06.405Z,22.3
2018-04-08T08:40:08.032Z,22.1
2018-04-08T08:41:09.654Z,22.2
2018-04-08T08:42:11.280Z,22.3
2018-04-08T08:43:12.902Z,22.3
2018-04-08T08:44:14.543Z,22.3
2018-04-08T08:45:16.157Z,22.3
2018-04-08T08:46:17.894Z,22.4
2018-04-08T08:47:19.497Z,22.5
2018-04-08T08:48:21.128Z,22.6
2018-04-08T08:49:23.259Z,22.6
2018-04-08T08:50:25.083Z,22.8
2018-04-08T08:51:26.714Z,22.9
2018-04-08T08:52:28.344Z,23.1
2018-04-08T08:53:29.966Z,23.2
2018-04-08T08:54:31.667Z,23.4
2018-04-08T08:55:33.267Z,23.6
2018-04-08T08:56:34.890Z,23.7
2018-04-08T08:57:36.515Z,24.0
2018-04-08T08:58:38.144Z,24.2
2018-04-08T08:59:39.772Z,24.3
2018-04-08T09:00:41.396Z,24.4
2018-04-08T09:01:43.021Z,24.9
2018-04-08T09:02:44.652Z,25.2
2018-04-08T09:03:46.279Z,25.5
2018-04-08T09:04:47.904Z,25.9
2018-04-08T09:05:49.530Z,26.1
2018-04-08T09:06:51.166Z,26.6
2018-04-08T09:07:52.800Z,26.9
2018-04-08T09:08:54.424Z,27.3
2018-04-08T09:09:56.055Z,27.7
2018-04-08T09:10:57.687Z,27.5
2018-04-08T09:11:59.316Z,27.1
2018-04-08T09:13:00.942Z,27.6
2018-04-08T09:14:02.575Z,28.0
2018-04-08T09:15:04.205Z,28.5
2018-04-08T09:16:05.840Z,29.0
2018-04-08T09:17:07.468Z,29.6
2018-04-08T09:18:09.118Z,29.9
2018-04-08T09:19:10.748Z,30.0
2018-04-08T09:20:12.383Z,30.1
2018-04-08T09:21:14.015Z,29.6
2018-04-08T09:22:15.652Z,29.3
2018-04-08T09:23:17.287Z,29.1
2018-04-08T09:24:18.923Z,29.0
2018-04-08T09:25:20.556Z,29.0
2018-04-08T09:26:22.260Z,29.0
2018-04-08T09:27:23.895Z,29.0
2018-04-08T09:28:25.528Z,29.0
2018-04-08T09:29:27.167Z,29.3
2018-04-08T09:30:28.794Z,29.1
2018-04-08T09:31:30.432Z,29.2
2018-04-08T09:32:32.057Z,29.1
2018-04-08T09:33:33.694Z,29.1
2018-04-08T09:34:35.368Z,28.8
2018-04-08T09:35:36.996Z,29.0
2018-04-08T09:36:38.626Z,29.4
2018-04-08T09:37:40.266Z,29.6
2018-04-08T09:38:41.907Z,29.6
2018-04-08T09:39:43.536Z,29.8
2018-04-08T09:40:45.167Z,30.2
2018-04-08T09:41:46.797Z,30.4
2018-04-08T09:42:48.429Z,30.9
2018-04-08T09:43:50.066Z,31.3
2018-04-08T09:44:51.702Z,31.5
2018-04-08T09:45:53.334Z,31.8
2018-04-08T09:46:54.968Z,32.0
2018-04-08T09:47:56.599Z,32.3
2018-04-08T09:48:58.239Z,32.7
2018-04-08T09:49:59.886Z,32.6
2018-04-08T09:51:01.527Z,32.3
2018-04-08T09:52:03.158Z,32.0
2018-04-08T09:53:04.801Z,31.6
2018-04-08T09:54:06.434Z,31.3
2018-04-08T09:55:08.070Z,31.1
2018-04-08T09:56:09.699Z,30.7
2018-04-08T09:57:11.340Z,30.5
2018-04-08T09:58:12.973Z,30.4
2018-04-08T09:59:14.615Z,30.1
2018-04-08T10:00:16.253Z,29.9
2018-04-08T10:01:17.882Z,29.7
2018-04-08T10:02:19.517Z,29.8
2018-04-08T10:03:21.152Z,29.7
2018-04-08T10:04:22.784Z,29.6
2018-04-08T10:05:24.423Z,29.4
2018-04-08T10:06:26.053Z,29.2
2018-04-08T10:07:27.685Z,29.0
2018-04-08T10:08:29.320Z,28.8
2018-04-08T10:09:30.946Z,28.8
2018-04-08T10:10:32.582Z,29.2
2018-04-08T10:11:34.220Z,29.7
2018-04-08T10:12:35.847Z,30.1
2018-04-08T10:13:37.487Z,30.6
2018-04-08T10:14:39.124Z,31.0
2018-04-08T10:15:40.759Z,31.4
2018-04-08T10:16:42.393Z,31.5
2018-04-08T10:17:44.028Z,31.5
2018-04-08T10:18:45.660Z,31.4
2018-04-08T10:19:47.297Z,31.5
2018-04-08T10:20:48.932Z,31.9
2018-04-08T10:21:50.614Z,31.9
2018-04-08T10:22:52.335Z,32.0
2018-04-08T10:23:53.949Z,32.2
2018-04-08T10:24:55.581Z,32.5
2018-04-08T10:25:57.372Z,32.6
2018-04-08T10:26:59.004Z,32.9
2018-04-08T10:28:00.641Z,33.3
2018-04-08T10:29:02.341Z,33.6
2018-04-08T10:30:03.911Z,33.8
2018-04-08T10:31:05.546Z,33.9
2018-04-08T10:32:07.189Z,33.9
2018-04-08T10:33:08.827Z,34.0
2018-04-08T10:34:10.463Z,34.0
2018-04-08T10:35:12.107Z,34.1
2018-04-08T10:36:13.927Z,34.3
2018-04-08T10:37:15.570Z,34.1
2018-04-08T10:38:17.199Z,34.1
2018-04-08T10:39:18.842Z,34.2
2018-04-08T10:40:20.685Z,34.4
2018-04-08T10:41:22.327Z,34.4
2018-04-08T10:42:23.964Z,34.5
2018-04-08T10:43:25.610Z,34.9
2018-04-08T10:44:27.248Z,34.8
2018-04-08T10:45:28.889Z,34.7
2018-04-08T10:46:30.531Z,35.0
2018-04-08T10:47:32.171Z,34.7
2018-04-08T10:48:33.810Z,34.8
2018-04-08T10:49:35.453Z,35.2
2018-04-08T10:50:37.171Z,35.4
2018-04-08T10:51:38.809Z,35.5
2018-04-08T10:52:40.446Z,35.7
2018-04-08T10:53:42.084Z,35.8
2018-04-08T10:54:43.728Z,35.8
2018-04-08T10:55:45.364Z,35.6
2018-04-08T10:56:47.008Z,35.4
2018-04-08T10:57:48.649Z,35.3
2018-04-08T10:58:50.293Z,35.6
2018-04-08T10:59:51.930Z,35.8
2018-04-08T11:00:53.569Z,36.3
2018-04-08T11:01:55.206Z,36.4
2018-04-08T11:02:56.845Z,36.6
2018-04-08T11:03:58.486Z,36.4
2018-04-08T11:05:00.155Z,35.9
2018-04-08T11:06:01.775Z,36.1
2018-04-08T11:07:03.411Z,36.1
2018-04-08T11:08:05.084Z,35.9
2018-04-08T11:09:06.727Z,35.6
2018-04-08T11:10:08.396Z,35.8
2018-04-08T11:11:10.004Z,36.5
2018-04-08T11:12:11.652Z,36.2
2018-04-08T11:13:13.293Z,36.9
2018-04-08T11:14:14.930Z,37.3
2018-04-08T11:15:16.569Z,37.1
2018-04-08T11:16:18.216Z,36.8
2018-04-08T11:17:19.853Z,36.5
2018-04-08T11:18:21.493Z,36.9
2018-04-08T11:19:23.142Z,36.8
2018-04-08T11:20:24.784Z,36.7
2018-04-08T11:21:26.427Z,36.9
2018-04-08T11:22:28.071Z,37.1
2018-04-08T11:23:29.702Z,37.6
2018-04-08T11:24:31.352Z,37.7
2018-04-08T11:25:32.991Z,37.2
2018-04-08T11:26:34.637Z,36.8
2018-04-08T11:27:36.272Z,37.4
2018-04-08T11:28:37.916Z,37.2
2018-04-08T11:29:39.554Z,37.6
2018-04-08T11:30:41.199Z,37.3
2018-04-08T11:31:42.837Z,37.3
2018-04-08T11:32:44.483Z,37.6
2018-04-08T11:33:46.122Z,37.7
2018-04-08T11:34:47.763Z,37.8
2018-04-08T11:35:49.407Z,38.3
2018-04-08T11:36:51.048Z,38.2
2018-04-08T11:37:52.687Z,38.4
2018-04-08T11:38:54.330Z,38.5
2018-04-08T11:39:55.975Z,38.9
2018-04-08T11:40:57.616Z,39.0
2018-04-08T11:41:59.259Z,38.7
2018-04-08T11:43:00.898Z,38.4
2018-04-08T11:44:02.542Z,38.3
2018-04-08T11:45:04.180Z,38.3
2018-04-08T11:46:05.821Z,37.7
2018-04-08T11:47:07.474Z,37.9
2018-04-08T11:48:09.118Z,38.3
2018-04-08T11:49:10.754Z,38.6
2018-04-08T11:50:12.462Z,38.4
2018-04-08T11:51:14.104Z,38.3
2018-04-08T11:52:15.743Z,38.2
2018-04-08T11:53:17.384Z,38.4
2018-04-08T11:54:19.027Z,38.5
2018-04-08T11:55:20.674Z,38.7
2018-04-08T11:56:22.314Z,38.9
2018-04-08T11:57:23.952Z,39.1
2018-04-08T11:58:25.590Z,39.0
2018-04-08T11:59:27.233Z,39.0
2018-04-08T12:00:28.874Z,39.2
2018-04-08T12:01:30.518Z,38.5
2018-04-08T12:02:32.155Z,38.4
2018-04-08T12:03:33.800Z,38.5
2018-04-08T12:04:35.444Z,38.8
2018-04-08T12:05:37.084Z,39.3
2018-04-08T12:06:38.726Z,38.7
2018-04-08T12:07:40.378Z,38.7
2018-04-08T12:08:42.008Z,38.7
2018-04-08T12:09:43.648Z,38.8
2018-04-08T12:10:45.286Z,39.1
2018-04-08T12:11:46.925Z,39.2
2018-04-08T12:12:48.562Z,39.2
2018-04-08T12:13:50.208Z,38.2
2018-04-08T12:14:51.846Z,38.5
2018-04-08T12:15:53.495Z,38.8
2018-04-08T12:16:55.134Z,39.1
2018-04-08T12:17:56.775Z,39.3
2018-04-08T12:18:58.417Z,39.5
2018-04-08T12:20:00.056Z,39.7
2018-04-08T12:21:01.694Z,39.8
2018-04-08T12:22:03.336Z,40.2
2018-04-08T12:23:04.974Z,40.4
2018-04-08T12:24:06.623Z,40.7
2018-04-08T12:25:08.262Z,40.5
2018-04-08T12:26:09.921Z,40.5
2018-04-08T12:27:11.561Z,40.5
2018-04-08T12:28:13.205Z,40.4
2018-04-08T12:29:14.847Z,40.6
2018-04-08T12:30:16.491Z,40.4
2018-04-08T12:31:18.194Z,39.9
2018-04-08T12:32:19.775Z,39.5
2018-04-08T12:33:21.409Z,39.5
2018-04-08T12:34:23.056Z,39.6
2018-04-08T12:35:24.691Z,40.0
2018-04-08T12:36:26.337Z,39.9
2018-04-08T12:37:27.980Z,39.9
2018-04-08T12:38:29.619Z,39.4
2018-04-08T12:39:31.261Z,39.1
2018-04-08T12:40:32.905Z,39.3
2018-04-08T12:41:34.551Z,39.5
2018-04-08T12:42:36.185Z,39.5
2018-04-08T12:43:37.830Z,39.5
2018-04-08T12:44:39.470Z,39.8
2018-04-08T12:45:41.131Z,39.7
2018-04-08T12:46:42.765Z,39.5
2018-04-08T12:47:44.401Z,39.8
2018-04-08T12:48:46.047Z,39.8
2018-04-08T12:49:47.691Z,39.3
2018-04-08T12:50:49.325Z,39.1
2018-04-08T12:51:51.022Z,39.2
2018-04-08T12:52:52.610Z,38.8
2018-04-08T12:53:54.269Z,38.6
2018-04-08T12:54:55.887Z,38.3
2018-04-08T12:55:57.522Z,38.8
2018-04-08T12:56:59.169Z,38.8
2018-04-08T12:58:00.807Z,39.0
2018-04-08T12:59:02.449Z,39.0
2018-04-08T13:00:04.086Z,38.9
2018-04-08T13:01:05.739Z,39.2
2018-04-08T13:02:07.370Z,39.1
2018-04-08T13:03:09.005Z,38.9
2018-04-08T13:04:10.646Z,39.1
2018-04-08T13:05:12.286Z,39.1
2018-04-08T13:06:14.971Z,39.3
2018-04-08T13:07:16.608Z,39.5
2018-04-08T13:08:18.243Z,39.3
2018-04-08T13:09:19.888Z,39.4
2018-04-08T13:10:21.524Z,39.5
2018-04-08T13:11:23.171Z,39.4
2018-04-08T13:12:24.809Z,39.6
2018-04-08T13:13:26.447Z,39.8
2018-04-08T13:14:28.092Z,39.5
2018-04-08T13:15:29.725Z,39.8
2018-04-08T13:16:31.361Z,40.0
2018-04-08T13:17:33.002Z,40.0
2018-04-08T13:18:34.638Z,39.6
2018-04-08T13:19:36.280Z,39.7
2018-04-08T13:20:37.918Z,39.2
2018-04-08T13:21:39.565Z,39.4
2018-04-08T13:22:41.200Z,39.4
2018-04-08T13:23:42.840Z,39.6
2018-04-08T13:24:44.477Z,39.8
2018-04-08T13:25:46.117Z,40.1
2018-04-08T13:26:47.754Z,40.3
2018-04-08T13:27:49.395Z,40.3
2018-04-08T13:28:51.041Z,40.2
2018-04-08T13:29:52.673Z,39.9
2018-04-08T13:30:54.313Z,40.2
2018-04-08T13:31:55.951Z,39.9
2018-04-08T13:32:57.590Z,40.0
2018-04-08T13:33:59.227Z,40.0
2018-04-08T13:35:00.874Z,40.0
2018-04-08T13:36:02.509Z,39.9
2018-04-08T13:37:04.151Z,40.0
2018-04-08T13:38:05.782Z,40.0
2018-04-08T13:39:07.420Z,40.1
2018-04-08T13:40:09.060Z,40.2